sensor_id;sensor_type;location;lat;lon;timestamp;P1;durP1;ratioP1;P2;durP2;ratioP2
51122;SDS011;37162;41.724;13.346;2023-02-24T00:00:42;11.60;;;8.35;;
51122;SDS011;37162;41.724;13.346;2023-02-24T00:03:15;10.95;;;8.93;;
51122;SDS011;37162;41.724;13.346;2023-02-24T00:05:41;12.13;;;9.50;;
51122;SDS011;37162;41.724;13.346;2023-02-24T00:08:13;12.25;;;9.00;;
51122;SDS011;37162;41.724;13.346;2023-02-24T00:10:39;11.55;;;8.18;;
51122;SDS011;37162;41.724;13.346;2023-02-24T00:13:05;10.75;;;9.07;;
51122;SDS011;37162;41.724;13.346;2023-02-24T00:15:31;13.82;;;9.60;;
51122;SDS011;37162;41.724;13.346;2023-02-24T00:17:57;12.43;;;9.07;;
51122;SDS011;37162;41.724;13.346;2023-02-24T00:20:22;12.40;;;8.50;;
51122;SDS011;37162;41.724;13.346;2023-02-24T00:22:49;10.43;;;8.30;;
51122;SDS011;37162;41.724;13.346;2023-02-24T00:25:14;10.32;;;8.45;;
51122;SDS011;37162;41.724;13.346;2023-02-24T00:27:40;11.75;;;9.15;;
51122;SDS011;37162;41.724;13.346;2023-02-24T00:30:07;10.80;;;8.70;;
51122;SDS011;37162;41.724;13.346;2023-02-24T00:32:35;11.15;;;8.07;;
51122;SDS011;37162;41.724;13.346;2023-02-24T00:35:01;12.55;;;8.43;;
51122;SDS011;37162;41.724;13.346;2023-02-24T00:37:26;14.63;;;8.65;;
51122;SDS011;37162;41.724;13.346;2023-02-24T00:39:53;13.07;;;8.43;;
51122;SDS011;37162;41.724;13.346;2023-02-24T00:42:22;11.45;;;8.38;;
51122;SDS011;37162;41.724;13.346;2023-02-24T00:44:48;9.13;;;7.15;;
51122;SDS011;37162;41.724;13.346;2023-02-24T00:47:14;9.80;;;8.43;;
51122;SDS011;37162;41.724;13.346;2023-02-24T00:49:40;10.88;;;8.43;;
51122;SDS011;37162;41.724;13.346;2023-02-24T00:52:11;10.80;;;8.10;;
51122;SDS011;37162;41.724;13.346;2023-02-24T00:54:41;12.45;;;7.90;;
51122;SDS011;37162;41.724;13.346;2023-02-24T00:57:07;10.43;;;8.07;;
51122;SDS011;37162;41.724;13.346;2023-02-24T00:59:34;10.20;;;8.40;;
51122;SDS011;37162;41.724;13.346;2023-02-24T01:02:00;14.38;;;7.93;;
51122;SDS011;37162;41.724;13.346;2023-02-24T01:04:27;10.75;;;7.63;;
51122;SDS011;37162;41.724;13.346;2023-02-24T01:06:53;9.52;;;7.85;;
51122;SDS011;37162;41.724;13.346;2023-02-24T01:09:24;9.98;;;7.65;;
51122;SDS011;37162;41.724;13.346;2023-02-24T01:11:52;9.77;;;7.45;;
51122;SDS011;37162;41.724;13.346;2023-02-24T01:14:37;10.82;;;7.47;;
51122;SDS011;37162;41.724;13.346;2023-02-24T01:17:04;10.02;;;7.40;;
51122;SDS011;37162;41.724;13.346;2023-02-24T01:19:31;10.80;;;7.32;;
51122;SDS011;37162;41.724;13.346;2023-02-24T01:21:58;8.48;;;7.00;;
51122;SDS011;37162;41.724;13.346;2023-02-24T01:24:33;9.55;;;7.45;;
51122;SDS011;37162;41.724;13.346;2023-02-24T01:27:03;12.38;;;7.63;;
51122;SDS011;37162;41.724;13.346;2023-02-24T01:29:29;9.35;;;7.53;;
51122;SDS011;37162;41.724;13.346;2023-02-24T01:31:55;8.93;;;7.40;;
51122;SDS011;37162;41.724;13.346;2023-02-24T01:34:22;7.47;;;6.53;;
51122;SDS011;37162;41.724;13.346;2023-02-24T01:36:49;9.55;;;6.68;;
51122;SDS011;37162;41.724;13.346;2023-02-24T01:39:15;9.07;;;6.78;;
51122;SDS011;37162;41.724;13.346;2023-02-24T01:41:42;9.77;;;7.28;;
51122;SDS011;37162;41.724;13.346;2023-02-24T01:46:42;10.90;;;6.72;;
51122;SDS011;37162;41.724;13.346;2023-02-24T01:49:11;7.63;;;6.43;;
51122;SDS011;37162;41.724;13.346;2023-02-24T01:51:43;7.72;;;6.32;;
51122;SDS011;37162;41.724;13.346;2023-02-24T01:54:14;9.57;;;6.88;;
51122;SDS011;37162;41.724;13.346;2023-02-24T01:56:43;9.50;;;6.60;;
51122;SDS011;37162;41.724;13.346;2023-02-24T01:59:13;8.70;;;6.57;;
51122;SDS011;37162;41.724;13.346;2023-02-24T02:01:40;9.35;;;7.03;;
51122;SDS011;37162;41.724;13.346;2023-02-24T02:06:55;7.78;;;6.25;;
51122;SDS011;37162;41.724;13.346;2023-02-24T02:09:22;8.57;;;6.97;;
51122;SDS011;37162;41.724;13.346;2023-02-24T02:11:48;7.78;;;5.90;;
51122;SDS011;37162;41.724;13.346;2023-02-24T02:14:16;8.80;;;6.30;;
51122;SDS011;37162;41.724;13.346;2023-02-24T02:36:25;8.55;;;6.38;;
51122;SDS011;37162;41.724;13.346;2023-02-24T02:41:34;9.30;;;6.07;;
51122;SDS011;37162;41.724;13.346;2023-02-24T02:44:10;11.23;;;6.80;;
51122;SDS011;37162;41.724;13.346;2023-02-24T02:46:54;9.88;;;7.65;;
51122;SDS011;37162;41.724;13.346;2023-02-24T02:49:31;8.07;;;6.80;;
51122;SDS011;37162;41.724;13.346;2023-02-24T02:52:05;7.97;;;6.55;;
51122;SDS011;37162;41.724;13.346;2023-02-24T02:54:55;8.02;;;6.00;;
51122;SDS011;37162;41.724;13.346;2023-02-24T02:57:28;8.35;;;6.75;;
51122;SDS011;37162;41.724;13.346;2023-02-24T03:00:03;8.20;;;6.57;;
51122;SDS011;37162;41.724;13.346;2023-02-24T03:02:39;8.13;;;5.95;;
51122;SDS011;37162;41.724;13.346;2023-02-24T03:05:08;7.72;;;5.50;;
51122;SDS011;37162;41.724;13.346;2023-02-24T03:07:38;8.65;;;6.82;;
51122;SDS011;37162;41.724;13.346;2023-02-24T03:10:10;8.57;;;5.55;;
51122;SDS011;37162;41.724;13.346;2023-02-24T03:12:45;7.43;;;6.10;;
51122;SDS011;37162;41.724;13.346;2023-02-24T03:15:14;7.57;;;5.80;;
51122;SDS011;37162;41.724;13.346;2023-02-24T03:17:45;8.55;;;5.47;;
51122;SDS011;37162;41.724;13.346;2023-02-24T03:20:15;8.07;;;5.63;;
51122;SDS011;37162;41.724;13.346;2023-02-24T03:25:15;7.43;;;5.43;;
51122;SDS011;37162;41.724;13.346;2023-02-24T03:32:41;7.00;;;5.88;;
51122;SDS011;37162;41.724;13.346;2023-02-24T03:37:41;7.10;;;5.88;;
51122;SDS011;37162;41.724;13.346;2023-02-24T03:40:07;9.30;;;5.75;;
51122;SDS011;37162;41.724;13.346;2023-02-24T03:42:35;9.00;;;6.03;;
51122;SDS011;37162;41.724;13.346;2023-02-24T03:45:04;7.75;;;6.03;;
51122;SDS011;37162;41.724;13.346;2023-02-24T03:47:31;8.88;;;6.28;;
51122;SDS011;37162;41.724;13.346;2023-02-24T03:49:57;8.30;;;5.90;;
51122;SDS011;37162;41.724;13.346;2023-02-24T03:57:55;8.40;;;5.82;;
51122;SDS011;37162;41.724;13.346;2023-02-24T04:09:18;7.45;;;5.57;;
51122;SDS011;37162;41.724;13.346;2023-02-24T04:20:04;7.35;;;4.80;;
51122;SDS011;37162;41.724;13.346;2023-02-24T04:22:37;7.22;;;5.30;;
51122;SDS011;37162;41.724;13.346;2023-02-24T04:25:05;8.20;;;5.30;;
51122;SDS011;37162;41.724;13.346;2023-02-24T04:27:37;7.10;;;4.90;;
51122;SDS011;37162;41.724;13.346;2023-02-24T04:30:05;9.88;;;5.40;;
51122;SDS011;37162;41.724;13.346;2023-02-24T04:32:34;7.32;;;5.63;;
51122;SDS011;37162;41.724;13.346;2023-02-24T04:35:01;6.60;;;4.97;;
51122;SDS011;37162;41.724;13.346;2023-02-24T04:37:32;6.47;;;5.18;;
51122;SDS011;37162;41.724;13.346;2023-02-24T04:39:59;6.82;;;5.10;;
51122;SDS011;37162;41.724;13.346;2023-02-24T04:42:25;7.95;;;5.00;;
51122;SDS011;37162;41.724;13.346;2023-02-24T04:44:51;6.78;;;4.68;;
51122;SDS011;37162;41.724;13.346;2023-02-24T04:47:17;7.70;;;5.35;;
51122;SDS011;37162;41.724;13.346;2023-02-24T04:49:43;6.35;;;4.93;;
51122;SDS011;37162;41.724;13.346;2023-02-24T04:52:09;5.22;;;4.72;;
51122;SDS011;37162;41.724;13.346;2023-02-24T04:54:35;6.22;;;4.75;;
51122;SDS011;37162;41.724;13.346;2023-02-24T04:57:02;7.78;;;5.60;;
51122;SDS011;37162;41.724;13.346;2023-02-24T04:59:30;5.78;;;4.70;;
51122;SDS011;37162;41.724;13.346;2023-02-24T05:01:56;6.22;;;4.90;;
51122;SDS011;37162;41.724;13.346;2023-02-24T05:04:25;8.35;;;5.22;;
51122;SDS011;37162;41.724;13.346;2023-02-24T05:06:51;7.88;;;5.55;;
51122;SDS011;37162;41.724;13.346;2023-02-24T05:09:17;12.02;;;4.95;;
51122;SDS011;37162;41.724;13.346;2023-02-24T05:11:43;5.93;;;5.10;;
51122;SDS011;37162;41.724;13.346;2023-02-24T05:14:13;7.40;;;5.30;;
51122;SDS011;37162;41.724;13.346;2023-02-24T05:16:43;5.80;;;4.90;;
51122;SDS011;37162;41.724;13.346;2023-02-24T05:19:11;8.77;;;5.20;;
51122;SDS011;37162;41.724;13.346;2023-02-24T05:22:00;6.85;;;5.32;;
51122;SDS011;37162;41.724;13.346;2023-02-24T05:24:31;6.13;;;4.78;;
51122;SDS011;37162;41.724;13.346;2023-02-24T05:26:57;5.63;;;4.38;;
51122;SDS011;37162;41.724;13.346;2023-02-24T05:29:27;6.80;;;5.07;;
51122;SDS011;37162;41.724;13.346;2023-02-24T05:31:54;7.53;;;5.03;;
51122;SDS011;37162;41.724;13.346;2023-02-24T05:34:24;5.40;;;4.18;;
51122;SDS011;37162;41.724;13.346;2023-02-24T05:36:59;9.55;;;5.40;;
51122;SDS011;37162;41.724;13.346;2023-02-24T05:39:26;6.78;;;4.70;;
51122;SDS011;37162;41.724;13.346;2023-02-24T05:41:52;8.60;;;4.82;;
51122;SDS011;37162;41.724;13.346;2023-02-24T05:44:21;8.43;;;4.57;;
51122;SDS011;37162;41.724;13.346;2023-02-24T05:46:50;10.15;;;5.00;;
51122;SDS011;37162;41.724;13.346;2023-02-24T05:49:21;7.38;;;4.75;;
51122;SDS011;37162;41.724;13.346;2023-02-24T05:51:48;6.82;;;4.72;;
51122;SDS011;37162;41.724;13.346;2023-02-24T05:56:49;7.30;;;5.25;;
51122;SDS011;37162;41.724;13.346;2023-02-24T05:59:15;6.25;;;4.20;;
51122;SDS011;37162;41.724;13.346;2023-02-24T06:01:45;7.55;;;4.60;;
51122;SDS011;37162;41.724;13.346;2023-02-24T06:04:12;6.90;;;4.93;;
51122;SDS011;37162;41.724;13.346;2023-02-24T06:06:45;7.13;;;4.35;;
51122;SDS011;37162;41.724;13.346;2023-02-24T06:09:17;6.97;;;5.45;;
51122;SDS011;37162;41.724;13.346;2023-02-24T06:11:47;7.55;;;4.65;;
51122;SDS011;37162;41.724;13.346;2023-02-24T06:14:13;7.15;;;4.68;;
51122;SDS011;37162;41.724;13.346;2023-02-24T06:16:40;6.10;;;4.40;;
51122;SDS011;37162;41.724;13.346;2023-02-24T06:19:07;7.88;;;4.47;;
51122;SDS011;37162;41.724;13.346;2023-02-24T06:21:34;5.72;;;4.47;;
51122;SDS011;37162;41.724;13.346;2023-02-24T06:24:01;8.32;;;4.57;;
51122;SDS011;37162;41.724;13.346;2023-02-24T06:26:26;7.13;;;4.82;;
51122;SDS011;37162;41.724;13.346;2023-02-24T06:28:58;5.10;;;4.60;;
51122;SDS011;37162;41.724;13.346;2023-02-24T06:31:24;5.35;;;4.40;;
51122;SDS011;37162;41.724;13.346;2023-02-24T06:33:51;6.40;;;4.28;;
51122;SDS011;37162;41.724;13.346;2023-02-24T06:36:17;7.35;;;5.38;;
51122;SDS011;37162;41.724;13.346;2023-02-24T06:38:44;6.47;;;5.03;;
51122;SDS011;37162;41.724;13.346;2023-02-24T06:41:10;7.03;;;4.53;;
51122;SDS011;37162;41.724;13.346;2023-02-24T06:43:40;7.35;;;4.57;;
51122;SDS011;37162;41.724;13.346;2023-02-24T06:46:07;6.97;;;4.00;;
51122;SDS011;37162;41.724;13.346;2023-02-24T06:48:35;7.93;;;4.63;;
51122;SDS011;37162;41.724;13.346;2023-02-24T06:51:11;8.35;;;4.70;;
51122;SDS011;37162;41.724;13.346;2023-02-24T06:53:39;6.70;;;4.60;;
51122;SDS011;37162;41.724;13.346;2023-02-24T06:56:10;4.60;;;4.10;;
51122;SDS011;37162;41.724;13.346;2023-02-24T06:58:44;7.50;;;4.88;;
51122;SDS011;37162;41.724;13.346;2023-02-24T07:01:14;5.88;;;4.55;;
51122;SDS011;37162;41.724;13.346;2023-02-24T07:03:42;6.20;;;4.65;;
51122;SDS011;37162;41.724;13.346;2023-02-24T07:06:27;6.07;;;5.20;;
51122;SDS011;37162;41.724;13.346;2023-02-24T07:08:58;7.55;;;4.95;;
51122;SDS011;37162;41.724;13.346;2023-02-24T07:11:26;6.07;;;4.55;;
51122;SDS011;37162;41.724;13.346;2023-02-24T07:13:52;5.90;;;5.03;;
51122;SDS011;37162;41.724;13.346;2023-02-24T07:16:20;8.68;;;4.82;;
51122;SDS011;37162;41.724;13.346;2023-02-24T07:18:51;8.20;;;5.10;;
51122;SDS011;37162;41.724;13.346;2023-02-24T07:21:18;8.82;;;4.85;;
51122;SDS011;37162;41.724;13.346;2023-02-24T07:23:44;7.18;;;5.00;;
51122;SDS011;37162;41.724;13.346;2023-02-24T07:26:14;8.63;;;5.50;;
51122;SDS011;37162;41.724;13.346;2023-02-24T07:28:43;6.95;;;4.80;;
51122;SDS011;37162;41.724;13.346;2023-02-24T07:31:11;8.57;;;5.25;;
51122;SDS011;37162;41.724;13.346;2023-02-24T07:33:41;6.85;;;5.78;;
51122;SDS011;37162;41.724;13.346;2023-02-24T07:36:09;11.10;;;6.22;;
51122;SDS011;37162;41.724;13.346;2023-02-24T07:38:39;8.32;;;5.68;;
51122;SDS011;37162;41.724;13.346;2023-02-24T07:41:06;8.35;;;6.03;;
51122;SDS011;37162;41.724;13.346;2023-02-24T07:43:34;7.22;;;5.85;;
51122;SDS011;37162;41.724;13.346;2023-02-24T07:46:11;9.48;;;5.63;;
51122;SDS011;37162;41.724;13.346;2023-02-24T07:48:39;8.68;;;5.90;;
51122;SDS011;37162;41.724;13.346;2023-02-24T07:51:12;8.77;;;6.03;;
51122;SDS011;37162;41.724;13.346;2023-02-24T07:56:06;8.50;;;6.05;;
51122;SDS011;37162;41.724;13.346;2023-02-24T07:58:47;8.30;;;6.38;;
51122;SDS011;37162;41.724;13.346;2023-02-24T08:01:18;8.95;;;6.00;;
51122;SDS011;37162;41.724;13.346;2023-02-24T08:03:52;8.82;;;6.22;;
51122;SDS011;37162;41.724;13.346;2023-02-24T08:06:23;8.90;;;6.95;;
51122;SDS011;37162;41.724;13.346;2023-02-24T08:08:57;8.30;;;6.05;;
51122;SDS011;37162;41.724;13.346;2023-02-24T08:11:26;9.18;;;7.15;;
51122;SDS011;37162;41.724;13.346;2023-02-24T08:14:06;10.15;;;7.30;;
51122;SDS011;37162;41.724;13.346;2023-02-24T08:16:38;9.63;;;6.25;;
51122;SDS011;37162;41.724;13.346;2023-02-24T08:19:16;9.38;;;6.40;;
51122;SDS011;37162;41.724;13.346;2023-02-24T08:21:46;9.60;;;7.18;;
51122;SDS011;37162;41.724;13.346;2023-02-24T08:24:15;9.55;;;7.13;;
51122;SDS011;37162;41.724;13.346;2023-02-24T08:26:48;10.15;;;7.07;;
51122;SDS011;37162;41.724;13.346;2023-02-24T08:29:37;10.15;;;6.45;;
51122;SDS011;37162;41.724;13.346;2023-02-24T08:35:08;9.95;;;7.20;;
51122;SDS011;37162;41.724;13.346;2023-02-24T08:37:40;9.50;;;7.22;;
51122;SDS011;37162;41.724;13.346;2023-02-24T08:40:11;8.43;;;7.00;;
51122;SDS011;37162;41.724;13.346;2023-02-24T08:45:40;9.90;;;7.07;;
51122;SDS011;37162;41.724;13.346;2023-02-24T08:48:09;9.65;;;7.63;;
51122;SDS011;37162;41.724;13.346;2023-02-24T08:50:45;11.05;;;7.80;;
51122;SDS011;37162;41.724;13.346;2023-02-24T08:53:12;14.95;;;7.78;;
51122;SDS011;37162;41.724;13.346;2023-02-24T08:55:46;9.37;;;6.77;;
51122;SDS011;37162;41.724;13.346;2023-02-24T08:58:16;10.30;;;7.50;;
51122;SDS011;37162;41.724;13.346;2023-02-24T09:00:43;13.18;;;8.52;;
51122;SDS011;37162;41.724;13.346;2023-02-24T09:03:17;12.60;;;9.23;;
51122;SDS011;37162;41.724;13.346;2023-02-24T09:06:04;12.10;;;8.07;;
51122;SDS011;37162;41.724;13.346;2023-02-24T09:08:34;13.65;;;7.28;;
51122;SDS011;37162;41.724;13.346;2023-02-24T09:11:04;10.63;;;7.95;;
51122;SDS011;37162;41.724;13.346;2023-02-24T09:13:35;11.43;;;7.95;;
51122;SDS011;37162;41.724;13.346;2023-02-24T09:16:07;9.50;;;7.10;;
51122;SDS011;37162;41.724;13.346;2023-02-24T09:18:40;11.40;;;7.95;;
51122;SDS011;37162;41.724;13.346;2023-02-24T09:21:11;10.25;;;7.70;;
51122;SDS011;37162;41.724;13.346;2023-02-24T09:23:57;11.63;;;7.53;;
51122;SDS011;37162;41.724;13.346;2023-02-24T09:26:24;11.27;;;8.07;;
51122;SDS011;37162;41.724;13.346;2023-02-24T09:28:50;10.13;;;8.00;;
51122;SDS011;37162;41.724;13.346;2023-02-24T09:31:21;10.57;;;7.95;;
51122;SDS011;37162;41.724;13.346;2023-02-24T09:33:48;13.00;;;9.35;;
51122;SDS011;37162;41.724;13.346;2023-02-24T09:36:18;11.65;;;8.57;;
51122;SDS011;37162;41.724;13.346;2023-02-24T09:38:53;13.52;;;9.30;;
51122;SDS011;37162;41.724;13.346;2023-02-24T09:41:35;13.13;;;10.55;;
51122;SDS011;37162;41.724;13.346;2023-02-24T09:44:41;15.70;;;10.27;;
51122;SDS011;37162;41.724;13.346;2023-02-24T09:52:15;16.20;;;11.35;;
51122;SDS011;37162;41.724;13.346;2023-02-24T09:54:42;14.73;;;10.38;;
51122;SDS011;37162;41.724;13.346;2023-02-24T09:57:30;16.67;;;11.73;;
51122;SDS011;37162;41.724;13.346;2023-02-24T10:00:03;14.70;;;11.60;;
51122;SDS011;37162;41.724;13.346;2023-02-24T10:02:51;18.73;;;11.93;;
51122;SDS011;37162;41.724;13.346;2023-02-24T10:05:45;15.88;;;11.02;;
51122;SDS011;37162;41.724;13.346;2023-02-24T10:08:37;15.75;;;10.93;;
51122;SDS011;37162;41.724;13.346;2023-02-24T10:11:08;16.52;;;12.45;;
51122;SDS011;37162;41.724;13.346;2023-02-24T10:13:46;16.90;;;11.32;;
51122;SDS011;37162;41.724;13.346;2023-02-24T10:16:16;14.10;;;11.80;;
51122;SDS011;37162;41.724;13.346;2023-02-24T10:19:02;17.10;;;11.65;;
51122;SDS011;37162;41.724;13.346;2023-02-24T10:21:44;17.63;;;12.70;;
51122;SDS011;37162;41.724;13.346;2023-02-24T10:24:37;21.23;;;13.27;;
51122;SDS011;37162;41.724;13.346;2023-02-24T10:30:01;21.98;;;13.65;;
51122;SDS011;37162;41.724;13.346;2023-02-24T10:35:07;16.40;;;10.35;;
51122;SDS011;37162;41.724;13.346;2023-02-24T10:37:40;14.13;;;10.75;;
51122;SDS011;37162;41.724;13.346;2023-02-24T10:40:07;17.10;;;11.65;;
51122;SDS011;37162;41.724;13.346;2023-02-24T10:42:33;15.90;;;11.70;;
51122;SDS011;37162;41.724;13.346;2023-02-24T10:47:51;13.82;;;10.65;;
51122;SDS011;37162;41.724;13.346;2023-02-24T10:50:38;15.60;;;10.55;;
51122;SDS011;37162;41.724;13.346;2023-02-24T10:53:13;28.20;;;12.05;;
51122;SDS011;37162;41.724;13.346;2023-02-24T10:56:02;24.70;;;11.82;;
51122;SDS011;37162;41.724;13.346;2023-02-24T11:04:58;16.30;;;11.55;;
51122;SDS011;37162;41.724;13.346;2023-02-24T11:07:48;16.08;;;11.90;;
51122;SDS011;37162;41.724;13.346;2023-02-24T11:10:21;16.73;;;11.85;;
51122;SDS011;37162;41.724;13.346;2023-02-24T11:12:56;13.70;;;10.20;;
51122;SDS011;37162;41.724;13.346;2023-02-24T11:15:44;13.27;;;9.70;;
51122;SDS011;37162;41.724;13.346;2023-02-24T11:18:32;11.27;;;9.30;;
51122;SDS011;37162;41.724;13.346;2023-02-24T11:21:10;13.18;;;10.07;;
51122;SDS011;37162;41.724;13.346;2023-02-24T11:23:37;13.93;;;10.10;;
51122;SDS011;37162;41.724;13.346;2023-02-24T11:26:19;13.95;;;10.70;;
51122;SDS011;37162;41.724;13.346;2023-02-24T11:40:14;17.55;;;11.93;;
51122;SDS011;37162;41.724;13.346;2023-02-24T11:45:19;15.10;;;10.82;;
51122;SDS011;37162;41.724;13.346;2023-02-24T11:47:56;16.30;;;10.27;;
51122;SDS011;37162;41.724;13.346;2023-02-24T11:53:27;12.90;;;9.98;;
51122;SDS011;37162;41.724;13.346;2023-02-24T11:56:02;12.73;;;9.30;;
51122;SDS011;37162;41.724;13.346;2023-02-24T12:01:28;12.95;;;9.35;;
51122;SDS011;37162;41.724;13.346;2023-02-24T12:09:49;12.65;;;9.10;;
51122;SDS011;37162;41.724;13.346;2023-02-24T12:12:21;12.30;;;9.23;;
51122;SDS011;37162;41.724;13.346;2023-02-24T12:14:59;11.95;;;8.50;;
51122;SDS011;37162;41.724;13.346;2023-02-24T12:17:32;13.43;;;8.65;;
51122;SDS011;37162;41.724;13.346;2023-02-24T12:20:04;11.30;;;8.35;;
51122;SDS011;37162;41.724;13.346;2023-02-24T12:22:57;12.88;;;9.02;;
51122;SDS011;37162;41.724;13.346;2023-02-24T12:25:31;15.32;;;9.88;;
51122;SDS011;37162;41.724;13.346;2023-02-24T12:28:17;10.85;;;8.68;;
51122;SDS011;37162;41.724;13.346;2023-02-24T12:36:31;10.70;;;8.35;;
51122;SDS011;37162;41.724;13.346;2023-02-24T12:39:39;11.27;;;8.30;;
51122;SDS011;37162;41.724;13.346;2023-02-24T12:47:26;14.23;;;9.25;;
51122;SDS011;37162;41.724;13.346;2023-02-24T12:56:14;12.70;;;9.05;;
51122;SDS011;37162;41.724;13.346;2023-02-24T12:58:46;16.17;;;8.98;;
51122;SDS011;37162;41.724;13.346;2023-02-24T13:01:17;10.13;;;8.23;;
51122;SDS011;37162;41.724;13.346;2023-02-24T13:04:09;11.95;;;7.85;;
51122;SDS011;37162;41.724;13.346;2023-02-24T13:06:47;10.85;;;7.35;;
51122;SDS011;37162;41.724;13.346;2023-02-24T13:09:44;10.00;;;7.32;;
51122;SDS011;37162;41.724;13.346;2023-02-24T13:14:57;10.00;;;7.03;;
51122;SDS011;37162;41.724;13.346;2023-02-24T13:17:24;9.27;;;6.95;;
51122;SDS011;37162;41.724;13.346;2023-02-24T13:19:54;9.65;;;7.05;;
51122;SDS011;37162;41.724;13.346;2023-02-24T13:22:24;9.10;;;6.55;;
51122;SDS011;37162;41.724;13.346;2023-02-24T13:27:22;7.93;;;5.97;;
51122;SDS011;37162;41.724;13.346;2023-02-24T13:29:53;8.40;;;6.35;;
51122;SDS011;37162;41.724;13.346;2023-02-24T13:32:37;9.63;;;6.90;;
51122;SDS011;37162;41.724;13.346;2023-02-24T13:37:34;8.32;;;6.68;;
51122;SDS011;37162;41.724;13.346;2023-02-24T13:59:25;11.60;;;6.82;;
51122;SDS011;37162;41.724;13.346;2023-02-24T14:04:49;15.27;;;7.47;;
51122;SDS011;37162;41.724;13.346;2023-02-24T14:07:19;9.43;;;6.80;;
51122;SDS011;37162;41.724;13.346;2023-02-24T14:09:51;10.00;;;6.40;;
51122;SDS011;37162;41.724;13.346;2023-02-24T14:12:24;11.43;;;6.32;;
51122;SDS011;37162;41.724;13.346;2023-02-24T14:14:54;9.13;;;6.43;;
51122;SDS011;37162;41.724;13.346;2023-02-24T14:17:31;8.02;;;6.32;;
51122;SDS011;37162;41.724;13.346;2023-02-24T14:22:44;10.82;;;5.95;;
51122;SDS011;37162;41.724;13.346;2023-02-24T14:25:10;7.03;;;5.95;;
51122;SDS011;37162;41.724;13.346;2023-02-24T14:27:37;9.00;;;6.07;;
51122;SDS011;37162;41.724;13.346;2023-02-24T14:30:03;7.95;;;6.40;;
51122;SDS011;37162;41.724;13.346;2023-02-24T14:32:31;8.35;;;6.47;;
51122;SDS011;37162;41.724;13.346;2023-02-24T14:34:57;10.82;;;6.38;;
51122;SDS011;37162;41.724;13.346;2023-02-24T14:37:24;5.95;;;5.32;;
51122;SDS011;37162;41.724;13.346;2023-02-24T14:39:53;9.65;;;6.18;;
51122;SDS011;37162;41.724;13.346;2023-02-24T14:42:24;8.27;;;5.70;;
51122;SDS011;37162;41.724;13.346;2023-02-24T14:44:54;7.88;;;6.10;;
51122;SDS011;37162;41.724;13.346;2023-02-24T14:47:23;7.90;;;5.45;;
51122;SDS011;37162;41.724;13.346;2023-02-24T14:49:53;6.72;;;5.15;;
51122;SDS011;37162;41.724;13.346;2023-02-24T14:55:00;9.00;;;5.85;;
51122;SDS011;37162;41.724;13.346;2023-02-24T14:57:33;6.15;;;5.53;;
51122;SDS011;37162;41.724;13.346;2023-02-24T15:00:06;6.70;;;5.82;;
51122;SDS011;37162;41.724;13.346;2023-02-24T15:02:42;6.90;;;5.65;;
51122;SDS011;37162;41.724;13.346;2023-02-24T15:05:11;6.95;;;5.75;;
51122;SDS011;37162;41.724;13.346;2023-02-24T15:07:37;9.25;;;6.00;;
51122;SDS011;37162;41.724;13.346;2023-02-24T15:10:04;9.07;;;5.47;;
51122;SDS011;37162;41.724;13.346;2023-02-24T15:12:31;7.13;;;5.63;;
51122;SDS011;37162;41.724;13.346;2023-02-24T15:17:24;8.23;;;6.13;;
51122;SDS011;37162;41.724;13.346;2023-02-24T15:19:50;9.73;;;6.47;;
51122;SDS011;37162;41.724;13.346;2023-02-24T15:24:52;11.20;;;6.33;;
51122;SDS011;37162;41.724;13.346;2023-02-24T15:27:21;8.68;;;6.78;;
51122;SDS011;37162;41.724;13.346;2023-02-24T15:29:58;11.57;;;6.80;;
51122;SDS011;37162;41.724;13.346;2023-02-24T15:32:27;12.60;;;6.60;;
51122;SDS011;37162;41.724;13.346;2023-02-24T15:34:55;13.88;;;7.72;;
51122;SDS011;37162;41.724;13.346;2023-02-24T15:37:22;8.98;;;6.65;;
51122;SDS011;37162;41.724;13.346;2023-02-24T15:39:51;12.25;;;6.05;;
51122;SDS011;37162;41.724;13.346;2023-02-24T15:42:27;9.52;;;6.78;;
51122;SDS011;37162;41.724;13.346;2023-02-24T15:44:59;8.60;;;6.88;;
51122;SDS011;37162;41.724;13.346;2023-02-24T15:47:49;9.90;;;5.88;;
51122;SDS011;37162;41.724;13.346;2023-02-24T15:50:17;9.65;;;7.00;;
51122;SDS011;37162;41.724;13.346;2023-02-24T15:52:43;10.45;;;7.10;;
51122;SDS011;37162;41.724;13.346;2023-02-24T15:55:09;10.15;;;6.65;;
51122;SDS011;37162;41.724;13.346;2023-02-24T15:57:38;9.18;;;6.85;;
51122;SDS011;37162;41.724;13.346;2023-02-24T16:00:04;8.80;;;7.03;;
51122;SDS011;37162;41.724;13.346;2023-02-24T16:02:37;10.15;;;7.60;;
51122;SDS011;37162;41.724;13.346;2023-02-24T16:05:03;7.70;;;6.47;;
51122;SDS011;37162;41.724;13.346;2023-02-24T16:07:29;11.57;;;7.32;;
51122;SDS011;37162;41.724;13.346;2023-02-24T16:09:57;11.43;;;6.97;;
51122;SDS011;37162;41.724;13.346;2023-02-24T16:12:26;16.77;;;7.47;;
51122;SDS011;37162;41.724;13.346;2023-02-24T16:14:56;9.75;;;6.75;;
51122;SDS011;37162;41.724;13.346;2023-02-24T16:17:33;10.88;;;6.15;;
51122;SDS011;37162;41.724;13.346;2023-02-24T16:20:02;9.25;;;7.15;;
51122;SDS011;37162;41.724;13.346;2023-02-24T16:22:32;9.13;;;7.43;;
51122;SDS011;37162;41.724;13.346;2023-02-24T16:24:58;10.80;;;7.30;;
51122;SDS011;37162;41.724;13.346;2023-02-24T16:27:23;11.23;;;7.82;;
51122;SDS011;37162;41.724;13.346;2023-02-24T16:41:57;22.70;;;13.50;;
51122;SDS011;37162;41.724;13.346;2023-02-24T16:44:23;27.33;;;15.23;;
51122;SDS011;37162;41.724;13.346;2023-02-24T16:46:48;28.65;;;13.45;;
51122;SDS011;37162;41.724;13.346;2023-02-24T16:49:17;20.90;;;13.75;;
51122;SDS011;37162;41.724;13.346;2023-02-24T16:51:44;19.10;;;13.13;;
51122;SDS011;37162;41.724;13.346;2023-02-24T16:54:10;30.27;;;13.27;;
51122;SDS011;37162;41.724;13.346;2023-02-24T16:56:35;18.25;;;12.55;;
51122;SDS011;37162;41.724;13.346;2023-02-24T16:59:01;22.77;;;12.73;;
51122;SDS011;37162;41.724;13.346;2023-02-24T17:01:27;17.85;;;12.82;;
51122;SDS011;37162;41.724;13.346;2023-02-24T17:03:53;18.20;;;12.63;;
51122;SDS011;37162;41.724;13.346;2023-02-24T17:06:18;20.67;;;13.40;;
51122;SDS011;37162;41.724;13.346;2023-02-24T17:08:44;17.65;;;12.93;;
51122;SDS011;37162;41.724;13.346;2023-02-24T17:11:11;16.83;;;12.68;;
51122;SDS011;37162;41.724;13.346;2023-02-24T17:13:38;19.60;;;12.52;;
51122;SDS011;37162;41.724;13.346;2023-02-24T17:16:04;18.70;;;12.52;;
51122;SDS011;37162;41.724;13.346;2023-02-24T17:18:30;16.15;;;11.52;;
51122;SDS011;37162;41.724;13.346;2023-02-24T17:20:55;17.25;;;12.23;;
51122;SDS011;37162;41.724;13.346;2023-02-24T17:23:21;16.08;;;11.30;;
51122;SDS011;37162;41.724;13.346;2023-02-24T17:25:49;17.42;;;11.48;;
51122;SDS011;37162;41.724;13.346;2023-02-24T17:28:20;18.08;;;12.02;;
51122;SDS011;37162;41.724;13.346;2023-02-24T17:30:46;15.73;;;11.73;;
51122;SDS011;37162;41.724;13.346;2023-02-24T17:33:11;15.82;;;10.75;;
51122;SDS011;37162;41.724;13.346;2023-02-24T17:35:38;16.08;;;11.63;;
51122;SDS011;37162;41.724;13.346;2023-02-24T17:38:08;17.85;;;11.75;;
51122;SDS011;37162;41.724;13.346;2023-02-24T17:40:38;15.35;;;11.43;;
51122;SDS011;37162;41.724;13.346;2023-02-24T17:43:04;17.83;;;11.80;;
51122;SDS011;37162;41.724;13.346;2023-02-24T17:45:30;16.52;;;10.85;;
51122;SDS011;37162;41.724;13.346;2023-02-24T17:47:55;18.35;;;11.70;;
51122;SDS011;37162;41.724;13.346;2023-02-24T17:50:20;17.75;;;12.13;;
51122;SDS011;37162;41.724;13.346;2023-02-24T17:52:46;16.70;;;12.20;;